sensor_id;sensor_type;location;lat;lon;timestamp;temperature;humidity
76104;HTU21D;64831;44.870;37.336;2023-08-06T00:00:21;29.13;43.94
76104;HTU21D;64831;44.870;37.336;2023-08-06T00:02:47;29.11;44.05
76104;HTU21D;64831;44.870;37.336;2023-08-06T00:05:13;29.08;44.16
76104;HTU21D;64831;44.870;37.336;2023-08-06T00:07:39;29.06;44.21
76104;HTU21D;64831;44.870;37.336;2023-08-06T00:10:05;29.02;44.35
76104;HTU21D;64831;44.870;37.336;2023-08-06T00:12:31;29.02;44.45
76104;HTU21D;64831;44.870;37.336;2023-08-06T00:14:57;28.99;44.52
76104;HTU21D;64831;44.870;37.336;2023-08-06T00:17:23;28.98;44.61
76104;HTU21D;64831;44.870;37.336;2023-08-06T00:19:49;28.94;44.73
76104;HTU21D;64831;44.870;37.336;2023-08-06T00:22:15;28.90;44.83
76104;HTU21D;64831;44.870;37.336;2023-08-06T00:24:40;28.89;44.92
76104;HTU21D;64831;44.870;37.336;2023-08-06T00:27:06;28.85;45.02
76104;HTU21D;64831;44.870;37.336;2023-08-06T00:29:32;28.78;45.18
76104;HTU21D;64831;44.870;37.336;2023-08-06T00:31:58;28.76;45.28
76104;HTU21D;64831;44.870;37.336;2023-08-06T00:34:24;28.72;45.45
76104;HTU21D;64831;44.870;37.336;2023-08-06T00:36:51;28.65;45.53
76104;HTU21D;64831;44.870;37.336;2023-08-06T00:39:17;28.61;45.70
76104;HTU21D;64831;44.870;37.336;2023-08-06T00:41:42;28.56;45.80
76104;HTU21D;64831;44.870;37.336;2023-08-06T00:44:08;28.53;45.90
76104;HTU21D;64831;44.870;37.336;2023-08-06T00:46:34;28.46;46.02
76104;HTU21D;64831;44.870;37.336;2023-08-06T00:49:00;28.41;46.21
76104;HTU21D;64831;44.870;37.336;2023-08-06T00:51:26;28.37;46.35
76104;HTU21D;64831;44.870;37.336;2023-08-06T00:53:53;28.33;46.43
76104;HTU21D;64831;44.870;37.336;2023-08-06T00:56:19;28.29;46.58
76104;HTU21D;64831;44.870;37.336;2023-08-06T00:58:46;28.26;46.59
76104;HTU21D;64831;44.870;37.336;2023-08-06T01:01:12;28.24;46.70
76104;HTU21D;64831;44.870;37.336;2023-08-06T01:03:38;28.19;46.81
76104;HTU21D;64831;44.870;37.336;2023-08-06T01:06:04;28.17;46.85
76104;HTU21D;64831;44.870;37.336;2023-08-06T01:09:07;28.13;47.05
76104;HTU21D;64831;44.870;37.336;2023-08-06T01:14:23;28.04;47.40
76104;HTU21D;64831;44.870;37.336;2023-08-06T01:16:52;27.99;47.38
76104;HTU21D;64831;44.870;37.336;2023-08-06T01:19:21;27.95;47.50
76104;HTU21D;64831;44.870;37.336;2023-08-06T01:21:47;27.89;47.62
76104;HTU21D;64831;44.870;37.336;2023-08-06T01:24:13;27.84;47.79
76104;HTU21D;64831;44.870;37.336;2023-08-06T01:26:44;27.81;47.89
76104;HTU21D;64831;44.870;37.336;2023-08-06T01:29:28;27.73;48.16
76104;HTU21D;64831;44.870;37.336;2023-08-06T01:31:56;27.68;48.23
76104;HTU21D;64831;44.870;37.336;2023-08-06T01:34:31;27.64;48.33
76104;HTU21D;64831;44.870;37.336;2023-08-06T01:36:57;27.56;48.64
76104;HTU21D;64831;44.870;37.336;2023-08-06T01:39:25;27.53;48.71
76104;HTU21D;64831;44.870;37.336;2023-08-06T01:41:51;27.47;48.92
76104;HTU21D;64831;44.870;37.336;2023-08-06T01:44:17;27.43;48.96
76104;HTU21D;64831;44.870;37.336;2023-08-06T01:46:43;27.38;49.13
76104;HTU21D;64831;44.870;37.336;2023-08-06T01:49:09;27.36;49.22
76104;HTU21D;64831;44.870;37.336;2023-08-06T01:51:35;27.31;49.32
76104;HTU21D;64831;44.870;37.336;2023-08-06T01:54:01;27.27;49.43
76104;HTU21D;64831;44.870;37.336;2023-08-06T01:56:27;27.25;49.56
76104;HTU21D;64831;44.870;37.336;2023-08-06T01:58:53;27.21;49.69
76104;HTU21D;64831;44.870;37.336;2023-08-06T02:01:19;27.15;49.82
76104;HTU21D;64831;44.870;37.336;2023-08-06T02:03:45;27.11;49.96
76104;HTU21D;64831;44.870;37.336;2023-08-06T02:06:11;27.09;50.09
76104;HTU21D;64831;44.870;37.336;2023-08-06T02:08:37;27.07;50.20
76104;HTU21D;64831;44.870;37.336;2023-08-06T02:11:03;27.02;50.22
76104;HTU21D;64831;44.870;37.336;2023-08-06T02:13:30;26.99;50.46
76104;HTU21D;64831;44.870;37.336;2023-08-06T02:15:56;26.95;50.57
76104;HTU21D;64831;44.870;37.336;2023-08-06T02:18:22;26.91;50.64
76104;HTU21D;64831;44.870;37.336;2023-08-06T02:20:58;26.86;50.92
76104;HTU21D;64831;44.870;37.336;2023-08-06T02:23:25;26.82;51.02
76104;HTU21D;64831;44.870;37.336;2023-08-06T02:28:24;26.80;51.00
76104;HTU21D;64831;44.870;37.336;2023-08-06T02:30:53;26.81;51.06
76104;HTU21D;64831;44.870;37.336;2023-08-06T02:33:19;26.83;51.01
76104;HTU21D;64831;44.870;37.336;2023-08-06T02:35:44;26.84;51.00
76104;HTU21D;64831;44.870;37.336;2023-08-06T02:38:10;26.85;50.99
76104;HTU21D;64831;44.870;37.336;2023-08-06T02:40:36;26.89;51.00
76104;HTU21D;64831;44.870;37.336;2023-08-06T02:43:02;26.91;50.97
76104;HTU21D;64831;44.870;37.336;2023-08-06T02:45:29;26.92;50.88
76104;HTU21D;64831;44.870;37.336;2023-08-06T02:47:55;26.93;50.97
76104;HTU21D;64831;44.870;37.336;2023-08-06T02:50:21;26.96;50.90
76104;HTU21D;64831;44.870;37.336;2023-08-06T02:52:47;26.98;50.92
76104;HTU21D;64831;44.870;37.336;2023-08-06T02:55:13;27.02;50.85
76104;HTU21D;64831;44.870;37.336;2023-08-06T02:57:43;27.05;50.79
76104;HTU21D;64831;44.870;37.336;2023-08-06T03:00:09;27.08;50.79
76104;HTU21D;64831;44.870;37.336;2023-08-06T03:02:38;27.09;50.70
76104;HTU21D;64831;44.870;37.336;2023-08-06T03:05:24;27.12;50.65
76104;HTU21D;64831;44.870;37.336;2023-08-06T03:07:50;27.13;50.60
76104;HTU21D;64831;44.870;37.336;2023-08-06T03:10:21;27.17;50.54
76104;HTU21D;64831;44.870;37.336;2023-08-06T03:12:50;27.21;50.47
76104;HTU21D;64831;44.870;37.336;2023-08-06T03:15:18;27.23;50.50
76104;HTU21D;64831;44.870;37.336;2023-08-06T03:17:45;27.26;50.47
76104;HTU21D;64831;44.870;37.336;2023-08-06T03:20:12;27.30;50.40
76104;HTU21D;64831;44.870;37.336;2023-08-06T03:22:39;27.34;50.36
76104;HTU21D;64831;44.870;37.336;2023-08-06T03:25:06;27.38;50.26
76104;HTU21D;64831;44.870;37.336;2023-08-06T03:27:33;27.43;50.18
76104;HTU21D;64831;44.870;37.336;2023-08-06T03:30:00;27.46;50.15
76104;HTU21D;64831;44.870;37.336;2023-08-06T03:32:26;27.51;50.05
76104;HTU21D;64831;44.870;37.336;2023-08-06T03:34:53;27.53;49.99
76104;HTU21D;64831;44.870;37.336;2023-08-06T03:37:21;27.55;50.05
76104;HTU21D;64831;44.870;37.336;2023-08-06T03:39:47;27.57;50.01
76104;HTU21D;64831;44.870;37.336;2023-08-06T03:42:13;27.59;50.05
76104;HTU21D;64831;44.870;37.336;2023-08-06T03:44:39;27.58;50.07
76104;HTU21D;64831;44.870;37.336;2023-08-06T03:47:07;27.61;50.14
76104;HTU21D;64831;44.870;37.336;2023-08-06T03:49:33;27.64;50.18
76104;HTU21D;64831;44.870;37.336;2023-08-06T03:51:59;27.67;50.10
76104;HTU21D;64831;44.870;37.336;2023-08-06T03:54:25;27.72;50.05
76104;HTU21D;64831;44.870;37.336;2023-08-06T03:56:51;27.76;50.00
76104;HTU21D;64831;44.870;37.336;2023-08-06T03:59:17;27.79;49.92
76104;HTU21D;64831;44.870;37.336;2023-08-06T04:01:45;27.83;49.83
76104;HTU21D;64831;44.870;37.336;2023-08-06T04:04:11;27.89;49.78
76104;HTU21D;64831;44.870;37.336;2023-08-06T04:06:37;27.94;49.73
76104;HTU21D;64831;44.870;37.336;2023-08-06T04:09:03;27.98;49.69
76104;HTU21D;64831;44.870;37.336;2023-08-06T04:11:30;28.03;49.66
76104;HTU21D;64831;44.870;37.336;2023-08-06T04:13:56;28.08;49.67
76104;HTU21D;64831;44.870;37.336;2023-08-06T04:16:24;28.12;49.69
76104;HTU21D;64831;44.870;37.336;2023-08-06T04:18:52;28.15;49.63
76104;HTU21D;64831;44.870;37.336;2023-08-06T04:21:19;28.17;49.59
76104;HTU21D;64831;44.870;37.336;2023-08-06T04:23:46;28.20;49.52
76104;HTU21D;64831;44.870;37.336;2023-08-06T04:26:13;28.24;49.44
76104;HTU21D;64831;44.870;37.336;2023-08-06T04:28:39;28.27;49.43
76104;HTU21D;64831;44.870;37.336;2023-08-06T04:31:05;28.32;49.45
76104;HTU21D;64831;44.870;37.336;2023-08-06T04:33:32;28.37;49.34
76104;HTU21D;64831;44.870;37.336;2023-08-06T04:36:03;28.43;49.24
76104;HTU21D;64831;44.870;37.336;2023-08-06T04:38:29;28.52;49.17
76104;HTU21D;64831;44.870;37.336;2023-08-06T04:40:55;28.57;49.15
76104;HTU21D;64831;44.870;37.336;2023-08-06T04:43:22;28.63;49.06
76104;HTU21D;64831;44.870;37.336;2023-08-06T04:45:49;28.70;48.99
76104;HTU21D;64831;44.870;37.336;2023-08-06T04:48:16;28.75;48.91
76104;HTU21D;64831;44.870;37.336;2023-08-06T04:50:45;28.80;48.87
76104;HTU21D;64831;44.870;37.336;2023-08-06T04:53:11;28.87;48.74
76104;HTU21D;64831;44.870;37.336;2023-08-06T04:55:38;28.94;48.69
76104;HTU21D;64831;44.870;37.336;2023-08-06T04:58:04;29.01;48.60
76104;HTU21D;64831;44.870;37.336;2023-08-06T05:00:30;29.11;48.61
76104;HTU21D;64831;44.870;37.336;2023-08-06T05:02:56;29.19;48.50
76104;HTU21D;64831;44.870;37.336;2023-08-06T05:05:22;29.28;48.28
76104;HTU21D;64831;44.870;37.336;2023-08-06T05:07:49;29.39;47.97
76104;HTU21D;64831;44.870;37.336;2023-08-06T05:10:16;29.49;47.83
76104;HTU21D;64831;44.870;37.336;2023-08-06T05:12:42;29.60;47.63
76104;HTU21D;64831;44.870;37.336;2023-08-06T05:15:08;29.72;47.47
76104;HTU21D;64831;44.870;37.336;2023-08-06T05:17:34;29.81;47.29
76104;HTU21D;64831;44.870;37.336;2023-08-06T05:20:00;29.93;47.10
76104;HTU21D;64831;44.870;37.336;2023-08-06T05:22:26;30.04;46.74
76104;HTU21D;64831;44.870;37.336;2023-08-06T05:24:52;30.16;46.32
76104;HTU21D;64831;44.870;37.336;2023-08-06T05:27:18;30.25;46.07
76104;HTU21D;64831;44.870;37.336;2023-08-06T05:29:48;30.36;45.98
76104;HTU21D;64831;44.870;37.336;2023-08-06T05:32:13;30.45;45.90
76104;HTU21D;64831;44.870;37.336;2023-08-06T05:34:39;30.55;45.78
76104;HTU21D;64831;44.870;37.336;2023-08-06T05:37:07;30.66;45.61
76104;HTU21D;64831;44.870;37.336;2023-08-06T05:39:33;30.77;45.33
76104;HTU21D;64831;44.870;37.336;2023-08-06T05:41:59;30.90;45.25
76104;HTU21D;64831;44.870;37.336;2023-08-06T05:44:24;31.00;45.13
76104;HTU21D;64831;44.870;37.336;2023-08-06T05:46:50;31.14;44.94
76104;HTU21D;64831;44.870;37.336;2023-08-06T05:49:17;31.25;44.82
76104;HTU21D;64831;44.870;37.336;2023-08-06T05:51:43;31.38;44.63
76104;HTU21D;64831;44.870;37.336;2023-08-06T05:54:09;31.54;44.38
76104;HTU21D;64831;44.870;37.336;2023-08-06T05:56:35;31.98;44.93
76104;HTU21D;64831;44.870;37.336;2023-08-06T05:59:01;32.75;44.37
76104;HTU21D;64831;44.870;37.336;2023-08-06T06:01:27;33.68;42.39
76104;HTU21D;64831;44.870;37.336;2023-08-06T06:03:52;34.53;40.81
76104;HTU21D;64831;44.870;37.336;2023-08-06T06:06:18;35.38;38.64
76104;HTU21D;64831;44.870;37.336;2023-08-06T06:08:45;36.09;37.64
76104;HTU21D;64831;44.870;37.336;2023-08-06T06:11:11;36.81;36.02
76104;HTU21D;64831;44.870;37.336;2023-08-06T06:13:37;37.49;34.47
76104;HTU21D;64831;44.870;37.336;2023-08-06T06:16:03;38.08;33.40
76104;HTU21D;64831;44.870;37.336;2023-08-06T06:18:31;38.68;31.96
76104;HTU21D;64831;44.870;37.336;2023-08-06T06:20:56;39.18;30.84
76104;HTU21D;64831;44.870;37.336;2023-08-06T06:23:22;39.62;30.14
76104;HTU21D;64831;44.870;37.336;2023-08-06T06:25:49;40.00;29.02
76104;HTU21D;64831;44.870;37.336;2023-08-06T06:28:19;40.33;28.68
76104;HTU21D;64831;44.870;37.336;2023-08-06T06:30:45;40.71;28.10
76104;HTU21D;64831;44.870;37.336;2023-08-06T06:33:11;40.82;26.75
76104;HTU21D;64831;44.870;37.336;2023-08-06T06:35:37;40.61;26.18
76104;HTU21D;64831;44.870;37.336;2023-08-06T06:38:03;40.47;26.28
76104;HTU21D;64831;44.870;37.336;2023-08-06T06:40:28;40.16;26.07
76104;HTU21D;64831;44.870;37.336;2023-08-06T06:42:54;40.06;26.23
76104;HTU21D;64831;44.870;37.336;2023-08-06T06:45:20;40.02;26.44
76104;HTU21D;64831;44.870;37.336;2023-08-06T06:47:46;39.82;26.62
76104;HTU21D;64831;44.870;37.336;2023-08-06T06:50:12;39.89;26.68
76104;HTU21D;64831;44.870;37.336;2023-08-06T06:52:38;40.04;26.87
76104;HTU21D;64831;44.870;37.336;2023-08-06T06:55:04;39.95;27.10
76104;HTU21D;64831;44.870;37.336;2023-08-06T06:57:31;39.83;27.33
76104;HTU21D;64831;44.870;37.336;2023-08-06T06:59:56;39.89;27.41
76104;HTU21D;64831;44.870;37.336;2023-08-06T07:02:22;40.17;27.61
76104;HTU21D;64831;44.870;37.336;2023-08-06T07:04:49;40.41;27.20
76104;HTU21D;64831;44.870;37.336;2023-08-06T07:07:16;40.71;27.04
76104;HTU21D;64831;44.870;37.336;2023-08-06T07:09:41;41.04;26.63
76104;HTU21D;64831;44.870;37.336;2023-08-06T07:12:07;41.41;26.31
76104;HTU21D;64831;44.870;37.336;2023-08-06T07:14:33;41.63;25.95
76104;HTU21D;64831;44.870;37.336;2023-08-06T07:16:59;41.81;25.67
76104;HTU21D;64831;44.870;37.336;2023-08-06T07:19:25;41.86;25.17
76104;HTU21D;64831;44.870;37.336;2023-08-06T07:21:51;41.93;25.02
76104;HTU21D;64831;44.870;37.336;2023-08-06T07:24:17;42.00;24.85
76104;HTU21D;64831;44.870;37.336;2023-08-06T07:26:46;42.03;24.71
76104;HTU21D;64831;44.870;37.336;2023-08-06T07:29:12;42.17;24.59
76104;HTU21D;64831;44.870;37.336;2023-08-06T07:31:38;42.30;24.30
76104;HTU21D;64831;44.870;37.336;2023-08-06T07:34:04;42.29;24.25
76104;HTU21D;64831;44.870;37.336;2023-08-06T07:36:30;42.30;24.15
76104;HTU21D;64831;44.870;37.336;2023-08-06T07:38:56;42.35;23.91
76104;HTU21D;64831;44.870;37.336;2023-08-06T07:41:23;42.36;23.67
76104;HTU21D;64831;44.870;37.336;2023-08-06T07:43:49;42.39;23.77
76104;HTU21D;64831;44.870;37.336;2023-08-06T07:46:15;42.46;23.71
76104;HTU21D;64831;44.870;37.336;2023-08-06T07:48:41;42.60;23.72
76104;HTU21D;64831;44.870;37.336;2023-08-06T07:51:07;42.68;23.41
76104;HTU21D;64831;44.870;37.336;2023-08-06T07:53:33;42.74;23.36
76104;HTU21D;64831;44.870;37.336;2023-08-06T07:55:59;42.55;23.41
76104;HTU21D;64831;44.870;37.336;2023-08-06T07:58:27;42.46;23.59
76104;HTU21D;64831;44.870;37.336;2023-08-06T08:00:55;42.45;23.71
76104;HTU21D;64831;44.870;37.336;2023-08-06T08:03:21;42.49;23.78
76104;HTU21D;64831;44.870;37.336;2023-08-06T08:05:47;42.55;23.82
76104;HTU21D;64831;44.870;37.336;2023-08-06T08:08:13;42.50;23.69
76104;HTU21D;64831;44.870;37.336;2023-08-06T08:10:39;42.57;23.81
76104;HTU21D;64831;44.870;37.336;2023-08-06T08:13:05;42.66;23.92
76104;HTU21D;64831;44.870;37.336;2023-08-06T08:15:32;42.07;24.15
76104;HTU21D;64831;44.870;37.336;2023-08-06T08:17:58;41.98;24.49
76104;HTU21D;64831;44.870;37.336;2023-08-06T08:20:25;41.87;24.72
76104;HTU21D;64831;44.870;37.336;2023-08-06T08:22:58;41.84;24.89
76104;HTU21D;64831;44.870;37.336;2023-08-06T08:25:25;41.83;25.01
76104;HTU21D;64831;44.870;37.336;2023-08-06T08:27:51;41.74;25.05
76104;HTU21D;64831;44.870;37.336;2023-08-06T08:30:16;41.87;25.14
76104;HTU21D;64831;44.870;37.336;2023-08-06T08:32:42;42.04;25.11
76104;HTU21D;64831;44.870;37.336;2023-08-06T08:35:08;42.05;25.12
76104;HTU21D;64831;44.870;37.336;2023-08-06T08:37:34;42.19;25.11
76104;HTU21D;64831;44.870;37.336;2023-08-06T08:40:00;42.22;25.11
76104;HTU21D;64831;44.870;37.336;2023-08-06T08:42:26;42.20;24.86
76104;HTU21D;64831;44.870;37.336;2023-08-06T08:44:53;42.26;24.98
76104;HTU21D;64831;44.870;37.336;2023-08-06T08:47:20;41.83;25.08
76104;HTU21D;64831;44.870;37.336;2023-08-06T08:49:47;41.72;25.42
76104;HTU21D;64831;44.870;37.336;2023-08-06T08:52:15;41.83;25.51
76104;HTU21D;64831;44.870;37.336;2023-08-06T08:54:42;41.90;25.38
76104;HTU21D;64831;44.870;37.336;2023-08-06T08:57:09;41.83;25.54
76104;HTU21D;64831;44.870;37.336;2023-08-06T08:59:35;41.75;25.41
76104;HTU21D;64831;44.870;37.336;2023-08-06T09:02:01;41.72;25.64
76104;HTU21D;64831;44.870;37.336;2023-08-06T09:04:29;41.46;25.81
76104;HTU21D;64831;44.870;37.336;2023-08-06T09:06:58;41.55;25.89
76104;HTU21D;64831;44.870;37.336;2023-08-06T09:09:31;41.67;25.86
76104;HTU21D;64831;44.870;37.336;2023-08-06T09:12:04;41.75;25.72
76104;HTU21D;64831;44.870;37.336;2023-08-06T09:14:31;41.73;25.71
76104;HTU21D;64831;44.870;37.336;2023-08-06T09:16:58;41.79;25.77
76104;HTU21D;64831;44.870;37.336;2023-08-06T09:19:24;41.73;25.86
76104;HTU21D;64831;44.870;37.336;2023-08-06T09:21:53;41.56;26.05
76104;HTU21D;64831;44.870;37.336;2023-08-06T09:24:21;41.56;26.17
76104;HTU21D;64831;44.870;37.336;2023-08-06T09:26:50;41.65;26.23
76104;HTU21D;64831;44.870;37.336;2023-08-06T09:29:17;41.65;26.15
76104;HTU21D;64831;44.870;37.336;2023-08-06T09:31:47;41.77;25.97
76104;HTU21D;64831;44.870;37.336;2023-08-06T09:34:17;41.77;25.86
76104;HTU21D;64831;44.870;37.336;2023-08-06T09:36:49;41.78;26.01
76104;HTU21D;64831;44.870;37.336;2023-08-06T09:39:26;41.73;26.04
76104;HTU21D;64831;44.870;37.336;2023-08-06T09:41:59;41.57;26.26
76104;HTU21D;64831;44.870;37.336;2023-08-06T09:44:28;40.99;27.34
76104;HTU21D;64831;44.870;37.336;2023-08-06T09:46:55;41.02;27.51
76104;HTU21D;64831;44.870;37.336;2023-08-06T09:49:40;41.13;27.38
76104;HTU21D;64831;44.870;37.336;2023-08-06T09:52:12;41.16;27.42
76104;HTU21D;64831;44.870;37.336;2023-08-06T09:54:38;40.87;27.65
76104;HTU21D;64831;44.870;37.336;2023-08-06T09:57:05;40.69;27.83
76104;HTU21D;64831;44.870;37.336;2023-08-06T09:59:33;39.97;28.72
76104;HTU21D;64831;44.870;37.336;2023-08-06T10:02:00;39.88;28.88
76104;HTU21D;64831;44.870;37.336;2023-08-06T10:04:26;39.55;29.38
76104;HTU21D;64831;44.870;37.336;2023-08-06T10:06:54;38.97;30.39
76104;HTU21D;64831;44.870;37.336;2023-08-06T10:09:20;38.77;30.83
76104;HTU21D;64831;44.870;37.336;2023-08-06T10:11:51;38.65;31.24
76104;HTU21D;64831;44.870;37.336;2023-08-06T10:14:28;38.52;31.42
76104;HTU21D;64831;44.870;37.336;2023-08-06T10:16:57;38.36;31.69
76104;HTU21D;64831;44.870;37.336;2023-08-06T10:19:25;38.31;31.82
76104;HTU21D;64831;44.870;37.336;2023-08-06T10:22:11;38.19;32.04
76104;HTU21D;64831;44.870;37.336;2023-08-06T10:24:51;38.01;32.12
76104;HTU21D;64831;44.870;37.336;2023-08-06T10:27:30;37.92;32.53
76104;HTU21D;64831;44.870;37.336;2023-08-06T10:32:52;37.55;33.32
76104;HTU21D;64831;44.870;37.336;2023-08-06T10:35:34;37.40;33.76
76104;HTU21D;64831;44.870;37.336;2023-08-06T10:38:09;37.38;33.83
76104;HTU21D;64831;44.870;37.336;2023-08-06T10:40:39;37.45;33.84
76104;HTU21D;64831;44.870;37.336;2023-08-06T10:43:06;37.49;33.43
76104;HTU21D;64831;44.870;37.336;2023-08-06T10:45:37;37.56;33.02
76104;HTU21D;64831;44.870;37.336;2023-08-06T10:48:04;37.51;33.12
76104;HTU21D;64831;44.870;37.336;2023-08-06T10:50:30;37.56;33.11
76104;HTU21D;64831;44.870;37.336;2023-08-06T10:52:57;37.59;33.12
76104;HTU21D;64831;44.870;37.336;2023-08-06T10:55:28;37.63;32.94
76104;HTU21D;64831;44.870;37.336;2023-08-06T10:57:55;37.73;32.67
76104;HTU21D;64831;44.870;37.336;2023-08-06T11:00:22;37.72;32.63
76104;HTU21D;64831;44.870;37.336;2023-08-06T11:02:50;37.74;32.31
76104;HTU21D;64831;44.870;37.336;2023-08-06T11:05:16;37.81;32.03
76104;HTU21D;64831;44.870;37.336;2023-08-06T11:07:43;37.90;31.94
76104;HTU21D;64831;44.870;37.336;2023-08-06T11:10:11;37.97;31.64
76104;HTU21D;64831;44.870;37.336;2023-08-06T11:12:38;37.96;31.43
76104;HTU21D;64831;44.870;37.336;2023-08-06T11:15:05;38.00;31.30
76104;HTU21D;64831;44.870;37.336;2023-08-06T11:17:33;38.10;30.81
76104;HTU21D;64831;44.870;37.336;2023-08-06T11:20:04;38.18;30.31
76104;HTU21D;64831;44.870;37.336;2023-08-06T11:22:30;38.24;30.22
76104;HTU21D;64831;44.870;37.336;2023-08-06T11:24:56;38.37;30.09
76104;HTU21D;64831;44.870;37.336;2023-08-06T11:27:23;38.26;30.13
76104;HTU21D;64831;44.870;37.336;2023-08-06T11:29:49;38.16;30.31
76104;HTU21D;64831;44.870;37.336;2023-08-06T11:32:15;37.99;30.64
76104;HTU21D;64831;44.870;37.336;2023-08-06T11:34:43;37.72;30.68
76104;HTU21D;64831;44.870;37.336;2023-08-06T11:37:09;37.61;30.80
76104;HTU21D;64831;44.870;37.336;2023-08-06T11:39:37;37.62;30.89
76104;HTU21D;64831;44.870;37.336;2023-08-06T11:42:05;37.62;30.86
76104;HTU21D;64831;44.870;37.336;2023-08-06T11:44:34;37.61;30.80
76104;HTU21D;64831;44.870;37.336;2023-08-06T11:47:01;37.50;30.96
76104;HTU21D;64831;44.870;37.336;2023-08-06T11:54:42;37.18;31.59
76104;HTU21D;64831;44.870;37.336;2023-08-06T11:57:09;36.95;31.74
76104;HTU21D;64831;44.870;37.336;2023-08-06T11:59:37;36.91;31.87
76104;HTU21D;64831;44.870;37.336;2023-08-06T12:02:05;36.72;32.19
76104;HTU21D;64831;44.870;37.336;2023-08-06T12:04:59;36.68;32.58
76104;HTU21D;64831;44.870;37.336;2023-08-06T12:07:29;36.70;32.57
76104;HTU21D;64831;44.870;37.336;2023-08-06T12:09:56;36.69;32.60
76104;HTU21D;64831;44.870;37.336;2023-08-06T12:12:23;36.56;32.80
76104;HTU21D;64831;44.870;37.336;2023-08-06T12:14:49;36.51;32.73
76104;HTU21D;64831;44.870;37.336;2023-08-06T12:17:15;36.55;32.55
76104;HTU21D;64831;44.870;37.336;2023-08-06T12:19:41;36.63;32.33
76104;HTU21D;64831;44.870;37.336;2023-08-06T12:22:07;36.62;31.70
76104;HTU21D;64831;44.870;37.336;2023-08-06T12:24:34;36.43;31.61
76104;HTU21D;64831;44.870;37.336;2023-08-06T12:27:00;36.28;31.71
76104;HTU21D;64831;44.870;37.336;2023-08-06T12:29:27;36.16;31.95
76104;HTU21D;64831;44.870;37.336;2023-08-06T12:31:54;36.07;32.34
76104;HTU21D;64831;44.870;37.336;2023-08-06T12:34:20;36.01;32.67
76104;HTU21D;64831;44.870;37.336;2023-08-06T12:36:46;35.93;32.82
76104;HTU21D;64831;44.870;37.336;2023-08-06T12:39:11;35.87;33.01
76104;HTU21D;64831;44.870;37.336;2023-08-06T12:41:37;35.89;33.06
76104;HTU21D;64831;44.870;37.336;2023-08-06T12:44:03;35.89;33.28
76104;HTU21D;64831;44.870;37.336;2023-08-06T12:46:30;35.83;33.33
76104;HTU21D;64831;44.870;37.336;2023-08-06T12:48:59;35.67;33.74
76104;HTU21D;64831;44.870;37.336;2023-08-06T12:51:31;35.47;34.45
76104;HTU21D;64831;44.870;37.336;2023-08-06T12:53:57;35.41;34.76
76104;HTU21D;64831;44.870;37.336;2023-08-06T12:56:22;35.34;34.55
76104;HTU21D;64831;44.870;37.336;2023-08-06T12:58:48;35.31;34.63
76104;HTU21D;64831;44.870;37.336;2023-08-06T13:01:14;35.34;34.81
76104;HTU21D;64831;44.870;37.336;2023-08-06T13:03:40;35.29;34.86
76104;HTU21D;64831;44.870;37.336;2023-08-06T13:06:06;35.34;34.87
76104;HTU21D;64831;44.870;37.336;2023-08-06T13:08:33;35.28;34.85
76104;HTU21D;64831;44.870;37.336;2023-08-06T13:10:59;35.25;34.86
76104;HTU21D;64831;44.870;37.336;2023-08-06T13:13:25;35.22;34.80
76104;HTU21D;64831;44.870;37.336;2023-08-06T13:15:52;35.10;35.10
76104;HTU21D;64831;44.870;37.336;2023-08-06T13:18:18;35.06;35.22
76104;HTU21D;64831;44.870;37.336;2023-08-06T13:20:44;35.01;35.34
76104;HTU21D;64831;44.870;37.336;2023-08-06T13:23:13;35.05;35.19
76104;HTU21D;64831;44.870;37.336;2023-08-06T13:25:41;35.10;35.21
76104;HTU21D;64831;44.870;37.336;2023-08-06T13:28:08;35.20;34.95
76104;HTU21D;64831;44.870;37.336;2023-08-06T13:30:35;35.22;34.50
76104;HTU21D;64831;44.870;37.336;2023-08-06T13:33:09;35.15;34.17
76104;HTU21D;64831;44.870;37.336;2023-08-06T13:35:35;35.07;34.52
76104;HTU21D;64831;44.870;37.336;2023-08-06T13:38:01;35.07;34.55
76104;HTU21D;64831;44.870;37.336;2023-08-06T13:40:32;35.11;34.45
76104;HTU21D;64831;44.870;37.336;2023-08-06T13:42:59;35.12;34.64
76104;HTU21D;64831;44.870;37.336;2023-08-06T13:45:25;35.10;34.86
76104;HTU21D;64831;44.870;37.336;2023-08-06T13:47:51;35.01;35.24
76104;HTU21D;64831;44.870;37.336;2023-08-06T13:50:17;35.00;35.28
76104;HTU21D;64831;44.870;37.336;2023-08-06T13:52:44;35.00;35.47
76104;HTU21D;64831;44.870;37.336;2023-08-06T13:55:10;34.95;35.74
76104;HTU21D;64831;44.870;37.336;2023-08-06T13:57:36;34.88;36.10
76104;HTU21D;64831;44.870;37.336;2023-08-06T14:00:03;34.71;36.65
76104;HTU21D;64831;44.870;37.336;2023-08-06T14:02:38;34.40;38.08
76104;HTU21D;64831;44.870;37.336;2023-08-06T14:05:05;34.29;38.46
76104;HTU21D;64831;44.870;37.336;2023-08-06T14:07:31;34.21;38.55
76104;HTU21D;64831;44.870;37.336;2023-08-06T14:09:57;34.04;38.90
76104;HTU21D;64831;44.870;37.336;2023-08-06T14:12:24;33.99;39.00
76104;HTU21D;64831;44.870;37.336;2023-08-06T14:14:50;33.91;39.20
76104;HTU21D;64831;44.870;37.336;2023-08-06T14:17:16;33.91;39.10
76104;HTU21D;64831;44.870;37.336;2023-08-06T14:19:42;33.92;39.13
76104;HTU21D;64831;44.870;37.336;2023-08-06T14:22:08;33.91;39.12
76104;HTU21D;64831;44.870;37.336;2023-08-06T14:24:34;33.90;39.10
76104;HTU21D;64831;44.870;37.336;2023-08-06T14:27:00;33.90;39.20
76104;HTU21D;64831;44.870;37.336;2023-08-06T14:29:26;33.82;39.56
76104;HTU21D;64831;44.870;37.336;2023-08-06T14:31:51;33.68;40.26
76104;HTU21D;64831;44.870;37.336;2023-08-06T14:34:17;33.63;40.30
76104;HTU21D;64831;44.870;37.336;2023-08-06T14:36:43;33.62;40.17
76104;HTU21D;64831;44.870;37.336;2023-08-06T14:39:09;33.58;40.17
76104;HTU21D;64831;44.870;37.336;2023-08-06T14:41:35;33.58;40.07
76104;HTU21D;64831;44.870;37.336;2023-08-06T14:44:01;33.60;40.02
76104;HTU21D;64831;44.870;37.336;2023-08-06T14:46:27;33.62;39.88
76104;HTU21D;64831;44.870;37.336;2023-08-06T14:48:53;33.64;39.78
76104;HTU21D;64831;44.870;37.336;2023-08-06T14:51:19;33.64;39.77
76104;HTU21D;64831;44.870;37.336;2023-08-06T14:53:46;33.56;39.80
76104;HTU21D;64831;44.870;37.336;2023-08-06T14:56:12;33.51;39.95
76104;HTU21D;64831;44.870;37.336;2023-08-06T14:58:38;33.34;40.39
76104;HTU21D;64831;44.870;37.336;2023-08-06T15:01:04;33.27;40.57
76104;HTU21D;64831;44.870;37.336;2023-08-06T15:03:30;33.18;40.73
76104;HTU21D;64831;44.870;37.336;2023-08-06T15:05:57;33.13;40.89
76104;HTU21D;64831;44.870;37.336;2023-08-06T15:08:23;33.12;41.13
76104;HTU21D;64831;44.870;37.336;2023-08-06T15:10:52;33.09;41.13
76104;HTU21D;64831;44.870;37.336;2023-08-06T15:13:19;33.04;41.42
76104;HTU21D;64831;44.870;37.336;2023-08-06T15:15:49;32.99;41.80